createdAt,value
2022-08-04T00:00:54.936Z,959.89
2022-08-04T00:01:50.194Z,959.89
2022-08-04T00:02:45.189Z,959.89
2022-08-04T00:03:40.992Z,959.83
2022-08-04T00:04:36.226Z,959.87
2022-08-04T00:05:31.558Z,959.85
2022-08-04T00:06:27.638Z,959.87
2022-08-04T00:07:44.401Z,959.91
2022-08-04T00:08:19.135Z,959.87
2022-08-04T00:09:13.197Z,959.85
2022-08-04T00:10:09.652Z,959.87
2022-08-04T00:11:04.799Z,959.89
2022-08-04T00:12:00.583Z,959.87
2022-08-04T00:12:55.797Z,959.87
2022-08-04T00:14:02.329Z,959.85
2022-08-04T00:14:47.880Z,959.85
2022-08-04T00:15:42.068Z,959.85
2022-08-04T00:16:38.427Z,959.83
2022-08-04T00:17:33.495Z,959.83
2022-08-04T00:18:28.750Z,959.85
2022-08-04T00:19:24.538Z,959.85
2022-08-04T00:20:19.662Z,959.81
2022-08-04T00:21:14.933Z,959.83
2022-08-04T00:22:10.617Z,959.83
2022-08-04T00:23:05.857Z,959.81
2022-08-04T00:24:11.625Z,959.81
2022-08-04T00:24:57.198Z,959.81
2022-08-04T00:25:51.356Z,959.83
2022-08-04T00:26:46.320Z,959.81
2022-08-04T00:27:41.397Z,959.81
2022-08-04T00:28:36.636Z,959.77
2022-08-04T00:29:31.665Z,959.79
2022-08-04T00:30:26.757Z,959.79
2022-08-04T00:31:54.304Z,959.81
2022-08-04T00:32:31.132Z,959.81
2022-08-04T00:33:12.955Z,959.79
2022-08-04T00:34:06.995Z,959.85
2022-08-04T00:35:02.173Z,959.81
2022-08-04T00:35:57.149Z,959.83
2022-08-04T00:36:52.234Z,959.81
2022-08-04T00:37:47.230Z,959.81
2022-08-04T00:38:42.314Z,959.79
2022-08-04T00:39:37.739Z,959.79
2022-08-04T00:40:32.744Z,959.81
2022-08-04T00:41:27.729Z,959.81
2022-08-04T00:42:22.832Z,959.83
2022-08-04T00:43:17.935Z,959.81
2022-08-04T00:44:13.037Z,959.81
2022-08-04T00:45:09.084Z,959.77
2022-08-04T00:46:16.131Z,959.79
2022-08-04T00:46:59.143Z,959.79
2022-08-04T00:47:53.167Z,959.81
2022-08-04T00:48:48.265Z,959.81
2022-08-04T00:49:43.340Z,959.81
2022-08-04T00:50:38.472Z,959.83
2022-08-04T00:51:33.452Z,959.83
2022-08-04T00:52:30.691Z,959.81
2022-08-04T00:53:23.840Z,959.81
2022-08-04T00:54:18.936Z,959.83
2022-08-04T00:55:14.085Z,959.81
2022-08-04T00:56:10.008Z,959.81
2022-08-04T00:57:05.239Z,959.81
2022-08-04T00:58:00.339Z,959.81
2022-08-04T00:58:56.927Z,959.81
2022-08-04T00:59:52.179Z,959.81
2022-08-04T01:00:47.841Z,959.83
2022-08-04T01:01:43.091Z,959.83
2022-08-04T01:02:38.228Z,959.83
2022-08-04T01:03:34.026Z,959.83
2022-08-04T01:04:29.168Z,959.85
2022-08-04T01:05:24.954Z,959.81
2022-08-04T01:06:20.167Z,959.83
2022-08-04T01:07:15.459Z,959.85
2022-08-04T01:08:11.238Z,959.87
2022-08-04T01:09:06.418Z,959.83
2022-08-04T01:10:01.607Z,959.83
2022-08-04T01:10:57.970Z,959.85
2022-08-04T01:11:56.579Z,959.83
2022-08-04T01:12:49.173Z,959.81
2022-08-04T01:13:44.277Z,959.85
2022-08-04T01:14:39.397Z,959.83
2022-08-04T01:15:59.395Z,959.85
2022-08-04T01:16:31.354Z,959.85
2022-08-04T01:17:26.197Z,959.85
2022-08-04T01:18:21.423Z,959.89
2022-08-04T01:19:16.813Z,959.87
2022-08-04T01:20:12.471Z,959.85
2022-08-04T01:21:07.703Z,959.89
2022-08-04T01:22:02.823Z,959.85
2022-08-04T01:22:59.284Z,959.83
2022-08-04T01:23:54.541Z,959.85
2022-08-04T01:24:50.850Z,959.87
2022-08-04T01:25:45.488Z,959.85
2022-08-04T01:26:42.692Z,959.87
2022-08-04T01:27:37.970Z,959.87
2022-08-04T01:28:31.740Z,959.89
2022-08-04T01:29:32.312Z,959.89
2022-08-04T01:30:23.629Z,959.87
2022-08-04T01:31:18.524Z,959.87
2022-08-04T01:32:13.648Z,959.87
2022-08-04T01:33:09.573Z,959.87
2022-08-04T01:34:04.997Z,959.87
2022-08-04T01:35:00.026Z,959.85
2022-08-04T01:35:55.887Z,959.87
2022-08-04T01:36:51.040Z,959.87
2022-08-04T01:37:46.267Z,959.85
2022-08-04T01:38:42.611Z,959.87
2022-08-04T01:39:37.860Z,959.89
2022-08-04T01:40:33.196Z,959.89
2022-08-04T01:41:32.413Z,959.89
2022-08-04T01:42:31.638Z,959.85
2022-08-04T01:43:21.352Z,959.87
2022-08-04T01:44:15.489Z,959.87
2022-08-04T01:45:10.876Z,959.87
2022-08-04T01:46:07.013Z,959.85
2022-08-04T01:47:01.797Z,959.83
2022-08-04T01:47:57.605Z,959.85
2022-08-04T01:48:52.811Z,959.83
2022-08-04T01:49:48.179Z,959.83
2022-08-04T01:50:43.856Z,959.83
2022-08-04T01:51:39.111Z,959.81
2022-08-04T01:52:34.214Z,959.81
2022-08-04T01:53:30.672Z,959.79
2022-08-04T01:54:25.945Z,959.81
2022-08-04T01:55:21.724Z,959.81
2022-08-04T01:56:16.953Z,959.81
2022-08-04T01:57:38.831Z,959.81
2022-08-04T01:58:08.163Z,959.81
2022-08-04T01:59:02.183Z,959.79
2022-08-04T01:59:57.265Z,959.81
2022-08-04T02:00:56.333Z,959.79
2022-08-04T02:01:47.535Z,959.81
2022-08-04T02:02:42.476Z,959.79
2022-08-04T02:04:18.777Z,959.79
2022-08-04T02:04:34.995Z,959.79
2022-08-04T02:06:03.841Z,959.77
2022-08-04T02:06:25.046Z,959.77
2022-08-04T02:07:19.102Z,959.75
2022-08-04T02:08:14.171Z,959.73
2022-08-04T02:09:09.242Z,959.75
2022-08-04T02:10:05.450Z,959.77
2022-08-04T02:11:00.674Z,959.77
2022-08-04T02:11:55.942Z,959.75
2022-08-04T02:12:51.027Z,959.75
2022-08-04T02:13:46.110Z,959.75
2022-08-04T02:14:41.219Z,959.75
2022-08-04T02:15:36.330Z,959.77
2022-08-04T02:16:31.460Z,959.79
2022-08-04T02:17:26.438Z,959.79
2022-08-04T02:18:21.516Z,959.77
2022-08-04T02:19:16.525Z,959.77
2022-08-04T02:20:11.621Z,959.75
2022-08-04T02:21:09.275Z,959.75
2022-08-04T02:22:04.376Z,959.75
2022-08-04T02:23:05.418Z,959.75
2022-08-04T02:24:00.636Z,959.71
2022-08-04T02:24:55.732Z,959.71
2022-08-04T02:25:50.826Z,959.73
2022-08-04T02:26:46.072Z,959.75
2022-08-04T02:28:00.406Z,959.73
2022-08-04T02:28:37.337Z,959.75
2022-08-04T02:29:32.222Z,959.75
2022-08-04T02:30:26.714Z,959.75
2022-08-04T02:31:23.064Z,959.75
2022-08-04T02:32:18.309Z,959.75
2022-08-04T02:33:14.254Z,959.73
2022-08-04T02:34:09.352Z,959.71
2022-08-04T02:35:04.462Z,959.75
2022-08-04T02:36:00.275Z,959.75
2022-08-04T02:36:55.486Z,959.75
2022-08-04T02:37:50.840Z,959.73
2022-08-04T02:38:46.942Z,959.71
2022-08-04T02:39:48.758Z,959.71
2022-08-04T02:40:38.911Z,959.71
2022-08-04T02:41:33.151Z,959.69
2022-08-04T02:42:28.488Z,959.69
2022-08-04T02:43:50.764Z,959.69
2022-08-04T02:44:20.345Z,959.67
2022-08-04T02:45:15.215Z,959.73
2022-08-04T02:46:17.940Z,959.67
2022-08-04T02:47:06.727Z,959.69
2022-08-04T02:48:28.805Z,959.71
2022-08-04T02:48:57.657Z,959.71
2022-08-04T02:49:51.811Z,959.73
2022-08-04T02:50:46.849Z,959.73
2022-08-04T02:51:41.859Z,959.71
2022-08-04T02:52:37.014Z,959.71
2022-08-04T02:53:32.103Z,959.69
2022-08-04T02:54:32.808Z,959.69
2022-08-04T02:55:23.268Z,959.67
2022-08-04T02:56:17.449Z,959.67
2022-08-04T02:57:15.504Z,959.65
2022-08-04T02:58:10.579Z,959.67
2022-08-04T02:59:05.581Z,959.65
2022-08-04T03:00:00.579Z,959.65
2022-08-04T03:00:55.765Z,959.63
2022-08-04T03:01:57.268Z,959.67
2022-08-04T03:02:46.804Z,959.67
2022-08-04T03:03:40.869Z,959.63
2022-08-04T03:04:35.978Z,959.65
2022-08-04T03:05:31.065Z,959.63
2022-08-04T03:06:27.664Z,959.65
2022-08-04T03:07:21.934Z,959.65
2022-08-04T03:08:17.829Z,959.65
2022-08-04T03:09:12.923Z,959.59
2022-08-04T03:10:08.153Z,959.61
2022-08-04T03:11:03.851Z,959.61
2022-08-04T03:11:59.108Z,959.59
2022-08-04T03:12:58.782Z,959.59
2022-08-04T03:13:50.096Z,959.59
2022-08-04T03:14:45.914Z,959.61
2022-08-04T03:15:41.054Z,959.61
2022-08-04T03:16:38.824Z,959.59
2022-08-04T03:17:31.922Z,959.61
2022-08-04T03:18:27.073Z,959.63
2022-08-04T03:19:22.172Z,959.61
2022-08-04T03:20:17.173Z,959.63
2022-08-04T03:21:12.231Z,959.65
2022-08-04T03:22:07.351Z,959.65
2022-08-04T03:23:17.343Z,959.61
2022-08-04T03:23:58.410Z,959.61
2022-08-04T03:24:52.457Z,959.59
2022-08-04T03:25:56.913Z,959.57
2022-08-04T03:26:43.610Z,959.59
2022-08-04T03:27:37.639Z,959.59
2022-08-04T03:28:32.728Z,959.59
2022-08-04T03:29:36.469Z,959.59
2022-08-04T03:30:24.479Z,959.61
2022-08-04T03:31:18.628Z,959.59
2022-08-04T03:32:13.838Z,959.61
2022-08-04T03:33:09.228Z,959.59
2022-08-04T03:34:05.298Z,959.59
2022-08-04T03:35:00.508Z,959.57
2022-08-04T03:35:55.765Z,959.57
2022-08-04T03:36:51.506Z,959.59
2022-08-04T03:37:46.689Z,959.57
2022-08-04T03:38:42.549Z,959.59
2022-08-04T03:39:37.926Z,959.61
2022-08-04T03:40:33.226Z,959.59
2022-08-04T03:41:54.945Z,959.59
2022-08-04T03:42:25.177Z,959.61
2022-08-04T03:43:56.950Z,959.61
2022-08-04T03:44:15.465Z,959.61
2022-08-04T03:45:20.535Z,959.61
2022-08-04T03:46:05.538Z,959.63
2022-08-04T03:46:59.631Z,959.63
2022-08-04T03:47:54.654Z,959.63
